Time;durP1;ratioP1;P1;durP2;ratioP2;P2;SDS_P1;SDS_P2;PMS_P1;PMS_P2;Temp;Humidity;BMP_temperature;BMP_pressure;BME280_temperature;BME280_humidity;BME280_pressure;Samples;Min_cycle;Max_cycle;Signal;HPM_P1;HPM_P2
2023/11/20 00:01:34;;;;;;;0.35;0.35;;;10.00;99.90;;;;;;4428127;32;20077;-59
2023/11/20 00:04:00;;;;;;;3.65;0.50;;;9.90;99.90;;;;;;4428913;32;20065;-59
2023/11/20 00:06:27;;;;;;;0.50;0.50;;;9.90;99.90;;;;;;4428736;32;20077;-58
2023/11/20 00:08:53;;;;;;;0.40;0.40;;;9.90;99.90;;;;;;4427604;32;20111;-59
2023/11/20 00:11:18;;;;;;;0.65;0.65;;;9.90;99.90;;;;;;4411177;32;20072;-59
2023/11/20 00:13:44;;;;;;;3.60;1.25;;;9.90;99.90;;;;;;4432064;32;20120;-59
2023/11/20 00:16:11;;;;;;;0.50;0.50;;;9.90;99.90;;;;;;4430811;32;20081;-59
2023/11/20 00:18:37;;;;;;;3.90;1.45;;;9.90;99.90;;;;;;4429495;32;20163;-57
2023/11/20 00:21:03;;;;;;;0.50;0.50;;;9.90;99.90;;;;;;4427706;32;20061;-59
2023/11/20 00:23:28;;;;;;;0.40;0.40;;;9.90;99.90;;;;;;4430351;32;20081;-59
2023/11/20 00:25:54;;;;;;;0.47;0.47;;;9.90;99.90;;;;;;4428871;32;20065;-60
2023/11/20 00:28:19;;;;;;;0.62;0.62;;;9.90;99.90;;;;;;4429992;32;20069;-57
2023/11/20 00:30:44;;;;;;;6.22;0.75;;;9.90;99.90;;;;;;4426523;32;20537;-60
2023/11/20 00:33:10;;;;;;;0.75;0.70;;;9.90;99.90;;;;;;4425152;32;20077;-59
2023/11/20 00:35:35;;;;;;;0.75;0.75;;;9.90;99.90;;;;;;4427634;32;20085;-59
2023/11/20 00:38:02;;;;;;;0.50;0.50;;;9.90;99.90;;;;;;4429778;32;20969;-59
2023/11/20 00:40:27;;;;;;;0.30;0.30;;;9.90;99.90;;;;;;4432391;32;20057;-59
2023/11/20 00:42:53;;;;;;;1.48;0.50;;;9.90;99.90;;;;;;4428342;32;20576;-60
2023/11/20 00:45:18;;;;;;;0.40;0.40;;;9.80;99.90;;;;;;4430887;32;20069;-60
2023/11/20 00:47:44;;;;;;;3.03;1.75;;;9.90;99.90;;;;;;4433579;32;20082;-61
2023/11/20 00:50:10;;;;;;;7.30;1.17;;;9.80;99.90;;;;;;4430540;32;20081;-60
2023/11/20 00:52:35;;;;;;;12.82;2.47;;;9.80;99.90;;;;;;4429727;32;20187;-62
2023/11/20 00:55:09;;;;;;;3.15;1.00;;;9.80;99.90;;;;;;4428822;32;20118;-61
2023/11/20 00:57:36;;;;;;;2.65;1.02;;;9.80;99.90;;;;;;4427768;32;20054;-61
2023/11/20 01:00:02;;;;;;;1.60;1.35;;;9.90;99.90;;;;;;4430217;32;20075;-59
2023/11/20 01:02:27;;;;;;;4.30;1.70;;;9.80;99.90;;;;;;4429398;32;20069;-62
2023/11/20 01:04:53;;;;;;;0.98;0.60;;;9.80;99.90;;;;;;4435645;32;20073;-61
2023/11/20 01:07:18;;;;;;;0.60;0.60;;;9.90;99.90;;;;;;4429829;32;20283;-61
2023/11/20 01:09:44;;;;;;;0.50;0.50;;;9.80;99.90;;;;;;4431435;32;20080;-60
2023/11/20 01:12:09;;;;;;;0.30;0.30;;;9.90;99.90;;;;;;4428495;32;20081;-56
2023/11/20 01:14:35;;;;;;;7.87;1.08;;;9.80;99.90;;;;;;4428407;32;20065;-61
2023/11/20 01:17:00;;;;;;;3.40;0.70;;;9.80;99.90;;;;;;4429408;32;20089;-61
2023/11/20 01:19:26;;;;;;;0.40;0.40;;;9.80;99.90;;;;;;4431483;32;20072;-61
2023/11/20 01:21:51;;;;;;;0.70;0.70;;;9.80;99.90;;;;;;4428665;32;20081;-60
2023/11/20 01:24:17;;;;;;;17.27;3.42;;;9.80;99.90;;;;;;4430310;32;20081;-61
2023/11/20 01:26:42;;;;;;;0.20;0.20;;;9.80;99.90;;;;;;4431329;32;20082;-61
2023/11/20 01:29:08;;;;;;;1.70;1.05;;;9.80;99.90;;;;;;4426691;32;20104;-59
2023/11/20 01:31:34;;;;;;;0.35;0.35;;;9.80;99.90;;;;;;4432018;32;20505;-61
2023/11/20 01:33:59;;;;;;;0.95;0.40;;;9.70;99.90;;;;;;4428107;32;20089;-60
2023/11/20 01:36:25;;;;;;;0.65;0.65;;;9.80;99.90;;;;;;4432459;32;20525;-60
2023/11/20 01:38:50;;;;;;;1.33;0.62;;;9.80;99.90;;;;;;4432060;32;20132;-59
2023/11/20 01:41:17;;;;;;;1.10;0.70;;;9.80;99.90;;;;;;4429602;32;20069;-61
2023/11/20 01:43:42;;;;;;;0.40;0.40;;;9.70;99.90;;;;;;4430942;32;20086;-60
2023/11/20 01:46:13;;;;;;;1.30;1.02;;;9.70;99.90;;;;;;4429667;32;20525;-61
2023/11/20 01:48:40;;;;;;;0.52;0.52;;;9.70;99.90;;;;;;4429873;32;20197;-62
2023/11/20 01:51:06;;;;;;;0.40;0.40;;;9.70;99.90;;;;;;4428331;32;20080;-61
2023/11/20 01:53:33;;;;;;;0.40;0.40;;;9.70;99.90;;;;;;4430613;32;20070;-62
2023/11/20 01:55:59;;;;;;;0.40;0.40;;;9.70;99.90;;;;;;4429273;32;20077;-61
2023/11/20 01:58:25;;;;;;;2.35;0.50;;;9.70;99.90;;;;;;4431709;32;20537;-60
2023/11/20 02:00:52;;;;;;;1.05;0.50;;;9.70;99.90;;;;;;4428693;32;20061;-61
2023/11/20 02:03:19;;;;;;;0.30;0.30;;;9.70;99.90;;;;;;4431983;32;20066;-61
2023/11/20 02:05:45;;;;;;;1.50;0.47;;;9.70;99.90;;;;;;4433885;32;20088;-61
2023/11/20 02:08:10;;;;;;;0.73;0.73;;;9.70;99.90;;;;;;4428713;32;20602;-60
2023/11/20 02:10:36;;;;;;;0.40;0.40;;;9.70;99.90;;;;;;4431335;32;20543;-61
2023/11/20 02:13:04;;;;;;;0.30;0.30;;;9.70;99.90;;;;;;4428787;32;20086;-61
2023/11/20 02:15:30;;;;;;;0.40;0.40;;;9.80;99.90;;;;;;4429305;32;20085;-61
2023/11/20 02:17:55;;;;;;;0.30;0.30;;;9.80;99.90;;;;;;4430557;32;20069;-61
2023/11/20 02:20:23;;;;;;;0.30;0.30;;;9.70;99.90;;;;;;4428496;32;20081;-61
2023/11/20 02:22:49;;;;;;;0.50;0.50;;;9.70;99.90;;;;;;4427220;32;20490;-60
2023/11/20 02:25:17;;;;;;;0.73;0.70;;;9.70;99.90;;;;;;4428287;32;20081;-61
2023/11/20 02:28:09;;;;;;;1.33;1.02;;;9.70;99.90;;;;;;4430099;32;20074;-61
2023/11/20 02:30:36;;;;;;;0.40;0.40;;;9.80;99.90;;;;;;4425182;32;20076;-60
2023/11/20 02:33:01;;;;;;;0.88;0.75;;;9.70;99.90;;;;;;4427427;32;20131;-61
2023/11/20 02:35:27;;;;;;;9.23;1.00;;;9.70;99.90;;;;;;4430215;32;20077;-62
2023/11/20 02:37:53;;;;;;;7.32;0.85;;;9.70;99.90;;;;;;4431090;32;20447;-62
2023/11/20 02:40:19;;;;;;;0.25;0.25;;;9.80;99.90;;;;;;4428663;32;20568;-61
2023/11/20 02:42:45;;;;;;;0.60;0.60;;;9.70;99.90;;;;;;4426994;32;20069;-61
2023/11/20 02:45:12;;;;;;;1.12;0.73;;;9.70;99.90;;;;;;4429024;32;20089;-61
2023/11/20 02:47:38;;;;;;;0.50;0.50;;;9.70;99.90;;;;;;4426611;32;20070;-61
2023/11/20 02:50:04;;;;;;;12.23;1.70;;;9.70;99.90;;;;;;4427220;32;20085;-61
2023/11/20 02:52:30;;;;;;;0.47;0.45;;;9.70;99.90;;;;;;4428674;32;20320;-59
2023/11/20 02:54:55;;;;;;;0.43;0.43;;;9.70;99.90;;;;;;4430393;32;20428;-60
2023/11/20 02:57:21;;;;;;;0.30;0.30;;;9.70;99.90;;;;;;4430289;32;20090;-62
2023/11/20 02:59:46;;;;;;;3.20;1.37;;;9.70;99.90;;;;;;4427765;32;20069;-60
2023/11/20 03:02:13;;;;;;;0.40;0.40;;;9.60;99.90;;;;;;4429040;32;20073;-61
2023/11/20 03:04:38;;;;;;;0.50;0.50;;;9.60;99.90;;;;;;4431205;32;20390;-62
2023/11/20 03:07:04;;;;;;;0.40;0.40;;;9.70;99.90;;;;;;4432625;32;20127;-61
2023/11/20 03:09:30;;;;;;;0.30;0.30;;;9.70;99.90;;;;;;4430388;32;20499;-61
2023/11/20 03:11:55;;;;;;;0.35;0.35;;;9.70;99.90;;;;;;4432446;32;20077;-60
2023/11/20 03:14:21;;;;;;;0.30;0.30;;;9.70;99.90;;;;;;4426922;32;20073;-60
2023/11/20 03:16:46;;;;;;;0.40;0.40;;;9.80;99.90;;;;;;4427414;32;20093;-60
2023/11/20 03:19:14;;;;;;;0.50;0.50;;;9.80;99.90;;;;;;4429584;32;20328;-60
2023/11/20 03:21:40;;;;;;;0.50;0.50;;;9.80;99.90;;;;;;4426759;32;20525;-59
2023/11/20 03:24:07;;;;;;;0.43;0.40;;;9.70;99.90;;;;;;4428136;32;20065;-60
2023/11/20 03:26:32;;;;;;;3.33;1.15;;;9.70;99.90;;;;;;4429483;32;20053;-60
2023/11/20 03:28:57;;;;;;;0.30;0.30;;;9.70;99.90;;;;;;4429956;32;20618;-60
2023/11/20 03:31:23;;;;;;;0.30;0.30;;;9.80;99.90;;;;;;4425487;32;20111;-60
2023/11/20 03:33:48;;;;;;;0.62;0.62;;;9.80;99.90;;;;;;4423222;32;20077;-60
2023/11/20 03:36:15;;;;;;;0.50;0.50;;;9.80;99.90;;;;;;4427203;32;20078;-59
2023/11/20 03:38:41;;;;;;;0.40;0.40;;;9.70;99.90;;;;;;4414725;32;20081;-59
2023/11/20 03:41:07;;;;;;;0.30;0.30;;;9.80;99.90;;;;;;4428979;32;20078;-59
2023/11/20 03:43:34;;;;;;;0.73;0.73;;;9.70;99.90;;;;;;4428047;32;20077;-59
2023/11/20 03:45:59;;;;;;;3.30;1.20;;;9.70;99.90;;;;;;4426313;32;20553;-60
2023/11/20 03:48:25;;;;;;;0.30;0.30;;;9.70;99.90;;;;;;4431308;32;20096;-60
2023/11/20 03:50:50;;;;;;;1.45;0.52;;;9.70;99.90;;;;;;4428058;32;20604;-59
2023/11/20 03:53:16;;;;;;;0.30;0.30;;;9.70;99.90;;;;;;4429096;32;20089;-60
2023/11/20 03:55:41;;;;;;;0.30;0.30;;;9.70;99.90;;;;;;4429814;32;20081;-60
2023/11/20 03:58:07;;;;;;;0.30;0.30;;;9.70;99.90;;;;;;4429979;32;20084;-60
2023/11/20 04:00:32;;;;;;;0.40;0.40;;;9.70;99.90;;;;;;4427838;32;20069;-59
2023/11/20 04:02:59;;;;;;;10.32;0.52;;;9.70;99.90;;;;;;4427126;32;20447;-59
2023/11/20 04:05:25;;;;;;;0.55;0.55;;;9.70;99.90;;;;;;4429084;32;20061;-59
2023/11/20 04:07:50;;;;;;;0.62;0.57;;;9.70;99.90;;;;;;4428170;32;20069;-60
2023/11/20 04:10:16;;;;;;;13.70;1.02;;;9.70;99.90;;;;;;4428463;32;20081;-60
2023/11/20 04:12:45;;;;;;;0.30;0.30;;;9.80;99.90;;;;;;4429113;32;20119;-61
2023/11/20 04:15:11;;;;;;;0.30;0.30;;;9.80;99.90;;;;;;4425934;32;20526;-59
2023/11/20 04:17:36;;;;;;;0.30;0.30;;;9.80;99.90;;;;;;4428976;32;20077;-60
2023/11/20 04:20:03;;;;;;;1.73;1.27;;;9.80;99.90;;;;;;4430119;32;20947;-59
2023/11/20 04:22:29;;;;;;;0.30;0.30;;;9.80;99.90;;;;;;4426291;32;20101;-60
2023/11/20 04:24:55;;;;;;;0.28;0.28;;;9.80;99.90;;;;;;4426660;32;20077;-58
2023/11/20 04:27:20;;;;;;;0.30;0.30;;;9.80;99.90;;;;;;4426623;32;20073;-60
2023/11/20 04:29:46;;;;;;;0.30;0.30;;;9.80;99.90;;;;;;4427410;32;20487;-58
2023/11/20 04:32:11;;;;;;;0.37;0.37;;;9.80;99.90;;;;;;4427317;32;20072;-61
2023/11/20 04:34:36;;;;;;;0.30;0.30;;;9.80;99.90;;;;;;4428161;32;20085;-60
2023/11/20 04:37:02;;;;;;;0.30;0.30;;;9.70;99.90;;;;;;4428255;32;20131;-59
2023/11/20 04:39:27;;;;;;;1.98;0.70;;;9.80;99.90;;;;;;4428775;32;20084;-58
2023/11/20 04:41:53;;;;;;;0.30;0.30;;;9.70;99.90;;;;;;4428148;32;20065;-59
2023/11/20 04:44:18;;;;;;;0.30;0.30;;;9.70;99.90;;;;;;4428387;32;20472;-59
2023/11/20 04:46:44;;;;;;;0.35;0.35;;;9.70;99.90;;;;;;4429168;32;20064;-59
2023/11/20 04:49:09;;;;;;;0.50;0.50;;;9.70;99.90;;;;;;4432771;32;20125;-58
2023/11/20 04:51:35;;;;;;;0.40;0.40;;;9.60;99.90;;;;;;4428411;32;20085;-58
2023/11/20 04:54:00;;;;;;;0.22;0.22;;;9.60;99.90;;;;;;4426813;32;20090;-59
2023/11/20 04:56:26;;;;;;;0.50;0.50;;;9.70;99.90;;;;;;4426103;32;20603;-60
2023/11/20 04:58:51;;;;;;;0.40;0.40;;;9.60;99.90;;;;;;4430316;32;20114;-59
2023/11/20 05:01:17;;;;;;;1.27;0.50;;;9.60;99.90;;;;;;4427290;32;20868;-58
2023/11/20 05:03:43;;;;;;;0.32;0.32;;;9.60;99.90;;;;;;4429654;32;20130;-59
2023/11/20 05:06:09;;;;;;;3.17;0.60;;;9.60;99.90;;;;;;4428648;32;21039;-58
2023/11/20 05:08:36;;;;;;;11.50;0.95;;;9.60;99.90;;;;;;4428932;32;20077;-58
2023/11/20 05:11:02;;;;;;;0.60;0.55;;;9.60;99.90;;;;;;4426393;32;20077;-59
2023/11/20 05:13:28;;;;;;;0.37;0.37;;;9.60;99.90;;;;;;4426025;32;20123;-59
2023/11/20 05:15:53;;;;;;;0.60;0.60;;;9.60;99.90;;;;;;4426204;32;20077;-58
2023/11/20 05:18:19;;;;;;;5.68;0.65;;;9.70;99.90;;;;;;4425078;32;20074;-58
2023/11/20 05:20:44;;;;;;;0.40;0.40;;;9.70;99.90;;;;;;4424612;32;20495;-58
2023/11/20 05:23:10;;;;;;;0.30;0.30;;;9.70;99.90;;;;;;4427016;32;20061;-60
2023/11/20 05:25:37;;;;;;;0.40;0.40;;;9.70;99.90;;;;;;4425736;32;20070;-60
2023/11/20 05:28:02;;;;;;;0.30;0.30;;;9.70;99.90;;;;;;4430320;32;20496;-59
2023/11/20 05:30:29;;;;;;;0.30;0.30;;;9.60;99.90;;;;;;4431128;32;20092;-59
2023/11/20 05:32:56;;;;;;;0.62;0.62;;;9.70;99.90;;;;;;4429577;32;20481;-59
2023/11/20 05:35:22;;;;;;;0.40;0.40;;;9.70;99.90;;;;;;4427084;32;20076;-59
2023/11/20 05:37:47;;;;;;;0.32;0.32;;;9.70;99.90;;;;;;4429853;32;20406;-59
2023/11/20 05:40:13;;;;;;;0.43;0.43;;;9.70;99.90;;;;;;4433893;32;20855;-58
2023/11/20 05:42:40;;;;;;;0.30;0.30;;;9.70;99.90;;;;;;4430250;32;20443;-59
2023/11/20 05:45:06;;;;;;;0.40;0.40;;;9.80;99.90;;;;;;4428071;32;20097;-59
2023/11/20 05:47:31;;;;;;;0.60;0.60;;;9.70;99.90;;;;;;4429827;32;20136;-60
2023/11/20 05:49:57;;;;;;;0.77;0.77;;;9.70;99.90;;;;;;4427920;32;20073;-58
2023/11/20 05:52:22;;;;;;;0.22;0.22;;;9.80;99.90;;;;;;4425060;32;20150;-60
2023/11/20 05:54:48;;;;;;;0.30;0.30;;;9.80;99.90;;;;;;4429423;32;20076;-58
2023/11/20 05:57:13;;;;;;;0.35;0.35;;;9.70;99.90;;;;;;4423530;32;20607;-59
2023/11/20 05:59:39;;;;;;;0.40;0.40;;;9.80;99.90;;;;;;4421100;32;20353;-57
2023/11/20 06:02:04;;;;;;;0.40;0.40;;;9.80;99.90;;;;;;4421913;32;20633;-59
2023/11/20 06:04:30;;;;;;;0.40;0.40;;;9.80;99.90;;;;;;4425458;32;20073;-59
2023/11/20 06:06:55;;;;;;;0.30;0.30;;;9.80;99.90;;;;;;4413530;32;20501;-59
2023/11/20 06:09:21;;;;;;;0.40;0.40;;;9.80;99.90;;;;;;4424811;32;20944;-60
2023/11/20 06:11:49;;;;;;;0.40;0.40;;;9.80;99.90;;;;;;4423804;32;20090;-59
2023/11/20 06:14:15;;;;;;;0.65;0.65;;;9.80;99.90;;;;;;4414500;32;20120;-60
2023/11/20 06:16:41;;;;;;;0.40;0.40;;;9.80;99.90;;;;;;4425148;32;20069;-59
2023/11/20 06:19:08;;;;;;;0.30;0.30;;;9.70;99.90;;;;;;4423349;32;20094;-60
2023/11/20 06:21:34;;;;;;;0.30;0.30;;;9.80;99.90;;;;;;4412021;32;20081;-59
2023/11/20 06:24:00;;;;;;;0.30;0.30;;;9.80;99.90;;;;;;4423131;32;20803;-57
2023/11/20 06:26:26;;;;;;;8.15;0.50;;;9.90;99.90;;;;;;4413155;32;20093;-56
2023/11/20 06:28:52;;;;;;;0.45;0.45;;;9.80;99.90;;;;;;4419417;32;21146;-59
2023/11/20 06:31:17;;;;;;;0.50;0.50;;;9.80;99.90;;;;;;4407055;32;20066;-58
2023/11/20 06:33:43;;;;;;;0.30;0.30;;;9.80;99.90;;;;;;4421500;32;20472;-59
2023/11/20 06:36:10;;;;;;;2.17;0.47;;;9.80;99.90;;;;;;4420883;32;20078;-59
2023/11/20 06:38:35;;;;;;;0.30;0.30;;;9.90;99.90;;;;;;4428045;32;20078;-60
2023/11/20 06:41:02;;;;;;;0.40;0.40;;;9.90;99.90;;;;;;4412876;32;20788;-59
2023/11/20 06:43:28;;;;;;;0.45;0.45;;;9.90;99.90;;;;;;4421474;32;20093;-60
2023/11/20 06:45:54;;;;;;;0.40;0.40;;;9.90;99.90;;;;;;4419946;32;20152;-59
2023/11/20 06:48:19;;;;;;;0.30;0.30;;;9.80;99.90;;;;;;4411663;32;20089;-59
2023/11/20 06:50:45;;;;;;;0.30;0.30;;;9.80;99.90;;;;;;4415780;32;20490;-60
2023/11/20 06:53:11;;;;;;;28.75;0.55;;;9.80;99.90;;;;;;4404941;32;20817;-60
2023/11/20 06:55:36;;;;;;;0.32;0.32;;;9.90;99.90;;;;;;4402494;32;20739;-58
2023/11/20 06:58:02;;;;;;;0.28;0.28;;;9.90;99.90;;;;;;4404179;32;20089;-60
2023/11/20 07:00:27;;;;;;;0.37;0.37;;;9.90;99.90;;;;;;4397953;32;20163;-58
2023/11/20 07:02:54;;;;;;;0.40;0.40;;;9.90;99.90;;;;;;4396834;32;20113;-58
2023/11/20 07:05:20;;;;;;;0.62;0.60;;;9.90;99.90;;;;;;4387144;32;20231;-58
2023/11/20 07:07:51;;;;;;;0.30;0.30;;;10.00;99.90;;;;;;4406294;32;20778;-58
2023/11/20 07:10:22;;;;;;;0.40;0.40;;;10.00;99.90;;;;;;4403845;32;20089;-59
2023/11/20 07:12:48;;;;;;;3.60;1.85;;;10.00;99.90;;;;;;4394116;32;20484;-58
2023/11/20 07:15:13;;;;;;;0.55;0.55;;;10.00;99.90;;;;;;4404688;32;20085;-60
2023/11/20 07:17:39;;;;;;;0.50;0.50;;;10.00;99.90;;;;;;4400928;32;20396;-60
2023/11/20 07:20:07;;;;;;;0.30;0.30;;;10.00;99.90;;;;;;4391243;32;20081;-60
2023/11/20 07:22:33;;;;;;;0.30;0.30;;;10.00;99.90;;;;;;4395056;32;20106;-60
2023/11/20 07:24:58;;;;;;;1.02;0.95;;;10.00;99.90;;;;;;4399143;32;20104;-59
2023/11/20 07:27:24;;;;;;;0.88;0.40;;;10.10;99.90;;;;;;4391650;32;20131;-59
2023/11/20 07:29:49;;;;;;;0.40;0.40;;;10.10;99.90;;;;;;4395950;32;20380;-60
2023/11/20 07:32:15;;;;;;;0.30;0.30;;;10.10;99.90;;;;;;4389343;32;20825;-59
2023/11/20 07:34:40;;;;;;;3.17;1.55;;;10.10;99.90;;;;;;4393619;32;20116;-57
2023/11/20 07:37:06;;;;;;;2.20;1.17;;;10.10;99.90;;;;;;4398321;32;20086;-56
2023/11/20 07:39:31;;;;;;;0.50;0.50;;;10.10;99.90;;;;;;4397996;32;20559;-57
2023/11/20 07:41:59;;;;;;;0.28;0.28;;;10.10;99.90;;;;;;4389797;32;20802;-58
2023/11/20 07:44:25;;;;;;;0.30;0.30;;;10.00;99.90;;;;;;4390951;32;20188;-60
2023/11/20 07:46:50;;;;;;;0.30;0.30;;;10.10;99.90;;;;;;4398338;32;20096;-60
2023/11/20 07:49:17;;;;;;;0.50;0.50;;;10.10;99.90;;;;;;4391950;32;20078;-57
2023/11/20 07:51:43;;;;;;;0.30;0.30;;;10.10;99.90;;;;;;4392338;32;21037;-59
2023/11/20 07:54:08;;;;;;;0.40;0.40;;;10.20;99.90;;;;;;4378627;32;20829;-59
2023/11/20 07:56:35;;;;;;;0.25;0.25;;;10.20;99.90;;;;;;4395577;32;20110;-60
2023/11/20 07:59:00;;;;;;;0.40;0.40;;;10.20;99.90;;;;;;4389990;32;20106;-58
2023/11/20 08:01:26;;;;;;;0.47;0.47;;;10.20;99.90;;;;;;4378885;32;20800;-59
2023/11/20 08:03:51;;;;;;;0.32;0.32;;;10.20;99.90;;;;;;4401049;32;20073;-61
2023/11/20 08:06:18;;;;;;;0.30;0.30;;;10.20;99.90;;;;;;4393022;32;20100;-60
2023/11/20 08:08:44;;;;;;;0.45;0.45;;;10.10;99.90;;;;;;4393118;32;20093;-60
2023/11/20 08:11:10;;;;;;;0.45;0.45;;;10.20;99.90;;;;;;4397230;32;20921;-60
2023/11/20 08:13:35;;;;;;;0.60;0.60;;;10.20;99.90;;;;;;4396969;32;20186;-60
2023/11/20 08:16:02;;;;;;;0.40;0.40;;;10.20;99.90;;;;;;4392314;32;20086;-60
2023/11/20 08:18:28;;;;;;;0.30;0.30;;;10.30;99.90;;;;;;4394069;32;20206;-57
2023/11/20 08:20:54;;;;;;;0.40;0.40;;;10.20;99.90;;;;;;4400913;32;20085;-58
2023/11/20 08:23:20;;;;;;;0.30;0.30;;;10.20;99.90;;;;;;4387896;32;21378;-61
2023/11/20 08:25:46;;;;;;;0.40;0.40;;;10.30;99.90;;;;;;4391155;32;20081;-59
2023/11/20 08:28:11;;;;;;;0.45;0.45;;;10.20;99.90;;;;;;4397648;32;20855;-60
2023/11/20 08:30:37;;;;;;;4.22;1.37;;;10.20;99.90;;;;;;4396686;32;20494;-62
2023/11/20 08:33:02;;;;;;;0.30;0.30;;;10.30;99.90;;;;;;4393154;32;20310;-62
2023/11/20 08:35:28;;;;;;;0.60;0.60;;;10.30;99.90;;;;;;4386430;32;21569;-59
2023/11/20 08:37:54;;;;;;;0.30;0.30;;;10.30;99.90;;;;;;4389970;32;20135;-59
2023/11/20 08:40:20;;;;;;;0.55;0.55;;;10.30;99.90;;;;;;4398817;32;20198;-60
2023/11/20 08:42:46;;;;;;;0.30;0.30;;;10.30;99.90;;;;;;4399046;32;21447;-61
2023/11/20 08:45:12;;;;;;;0.40;0.40;;;10.30;99.90;;;;;;4405075;32;20939;-61
2023/11/20 08:47:39;;;;;;;0.40;0.40;;;10.30;99.90;;;;;;4392719;32;20163;-60
2023/11/20 08:50:06;;;;;;;0.30;0.30;;;10.40;99.90;;;;;;4387404;32;20105;-61
2023/11/20 08:52:31;;;;;;;0.40;0.40;;;10.30;99.90;;;;;;4379144;32;20080;-60
2023/11/20 08:54:57;;;;;;;0.40;0.40;;;10.40;99.90;;;;;;4396110;32;20253;-60
2023/11/20 08:57:22;;;;;;;0.30;0.30;;;10.40;99.90;;;;;;4396153;32;20065;-60
2023/11/20 08:59:49;;;;;;;0.40;0.40;;;10.40;99.90;;;;;;4392485;32;21445;-59
2023/11/20 09:02:18;;;;;;;0.30;0.30;;;10.50;99.90;;;;;;4400024;32;20419;-59
2023/11/20 09:04:43;;;;;;;0.40;0.40;;;10.50;99.90;;;;;;4397893;32;20097;-59
2023/11/20 09:07:09;;;;;;;0.62;0.60;;;10.50;99.90;;;;;;4405231;32;20089;-61
2023/11/20 09:09:35;;;;;;;0.30;0.30;;;10.50;99.90;;;;;;4410068;32;20089;-60
2023/11/20 09:12:02;;;;;;;0.40;0.40;;;10.50;99.90;;;;;;4399943;32;20062;-61
2023/11/20 09:14:28;;;;;;;0.40;0.40;;;10.50;99.90;;;;;;4409648;32;20173;-60
2023/11/20 09:16:54;;;;;;;0.40;0.40;;;10.50;99.90;;;;;;4405801;32;20832;-60
2023/11/20 09:19:19;;;;;;;0.30;0.30;;;10.50;99.90;;;;;;4389786;32;20100;-62
2023/11/20 09:21:45;;;;;;;0.50;0.50;;;10.60;99.90;;;;;;4403873;32;20307;-61
2023/11/20 09:24:11;;;;;;;0.37;0.37;;;10.60;99.90;;;;;;4396349;32;20089;-58
2023/11/20 09:26:36;;;;;;;0.73;0.40;;;10.60;99.90;;;;;;4404638;32;20082;-60
2023/11/20 09:29:06;;;;;;;0.40;0.40;;;10.60;99.90;;;;;;4401166;32;20105;-60
2023/11/20 09:31:34;;;;;;;0.50;0.50;;;10.60;99.90;;;;;;4401721;32;20133;-62
2023/11/20 09:34:01;;;;;;;0.35;0.35;;;10.60;99.90;;;;;;4404186;32;20113;-61
2023/11/20 09:36:26;;;;;;;0.40;0.40;;;10.60;99.90;;;;;;4409445;32;20123;-59
2023/11/20 09:38:52;;;;;;;0.50;0.50;;;10.70;99.90;;;;;;4401208;32;20093;-61
2023/11/20 09:41:18;;;;;;;0.40;0.40;;;10.70;99.90;;;;;;4406144;32;20351;-59
2023/11/20 09:43:44;;;;;;;0.40;0.40;;;10.70;99.90;;;;;;4402606;32;20106;-60
2023/11/20 09:46:11;;;;;;;0.40;0.40;;;10.70;99.90;;;;;;4404216;32;20146;-60
2023/11/20 09:48:39;;;;;;;0.30;0.30;;;10.70;99.90;;;;;;4397152;32;21039;-60
2023/11/20 09:51:08;;;;;;;0.30;0.30;;;10.80;99.90;;;;;;4399009;32;20564;-60
2023/11/20 09:53:37;;;;;;;0.40;0.40;;;10.80;99.90;;;;;;4402626;32;20683;-61
2023/11/20 09:56:03;;;;;;;0.50;0.50;;;10.70;99.90;;;;;;4388554;32;20109;-58
2023/11/20 09:58:30;;;;;;;0.40;0.40;;;10.70;99.90;;;;;;4408061;32;20208;-60
2023/11/20 10:01:04;;;;;;;0.50;0.50;;;10.70;99.90;;;;;;4396296;32;21559;-60
2023/11/20 10:03:31;;;;;;;0.40;0.40;;;10.60;99.90;;;;;;4395519;32;20624;-61
2023/11/20 10:05:59;;;;;;;0.65;0.57;;;10.70;99.90;;;;;;4396230;32;20150;-60
2023/11/20 10:08:27;;;;;;;1.17;0.85;;;10.60;99.90;;;;;;4397516;32;20138;-59
2023/11/20 10:10:53;;;;;;;0.95;0.55;;;10.70;99.90;;;;;;4399204;32;21062;-60
2023/11/20 10:13:19;;;;;;;0.40;0.40;;;10.70;99.90;;;;;;4404526;32;20092;-61
2023/11/20 10:15:46;;;;;;;0.50;0.50;;;10.70;99.90;;;;;;4403060;32;20181;-61
2023/11/20 10:18:12;;;;;;;0.40;0.40;;;10.70;99.90;;;;;;4398710;32;20105;-61
2023/11/20 10:20:53;;;;;;;0.30;0.30;;;10.70;99.90;;;;;;4393269;32;20695;-59
2023/11/20 10:23:21;;;;;;;0.60;0.60;;;10.70;99.90;;;;;;4386058;32;20780;-58
2023/11/20 10:25:47;;;;;;;0.68;0.68;;;10.70;99.90;;;;;;4388777;32;20860;-61
2023/11/20 10:28:14;;;;;;;0.32;0.32;;;10.60;99.90;;;;;;4387377;32;20097;-62
2023/11/20 10:30:42;;;;;;;0.50;0.50;;;10.60;99.90;;;;;;4389390;32;20141;-61
2023/11/20 10:33:17;;;;;;;0.30;0.30;;;10.60;99.90;;;;;;4391986;32;21111;-61
2023/11/20 10:35:43;;;;;;;0.40;0.40;;;10.60;99.90;;;;;;4395432;32;20093;-62
2023/11/20 10:38:11;;;;;;;0.50;0.50;;;10.70;99.90;;;;;;4405523;32;20109;-62
2023/11/20 10:40:39;;;;;;;0.35;0.35;;;10.70;99.90;;;;;;4410519;32;20089;-62
2023/11/20 10:43:05;;;;;;;0.30;0.30;;;10.70;99.90;;;;;;4402501;32;20086;-60
2023/11/20 10:45:34;;;;;;;0.80;0.30;;;10.70;99.90;;;;;;4393894;32;20093;-58
2023/11/20 10:48:01;;;;;;;2.45;0.50;;;10.80;99.90;;;;;;4394257;32;20170;-58
2023/11/20 10:50:31;;;;;;;1.23;0.98;;;10.90;99.90;;;;;;4388412;32;20101;-60
2023/11/20 10:53:05;;;;;;;2.90;1.30;;;10.90;99.90;;;;;;4393271;32;20078;-62
2023/11/20 10:55:38;;;;;;;0.40;0.40;;;10.90;99.90;;;;;;4399613;32;20106;-60
2023/11/20 10:58:07;;;;;;;0.35;0.35;;;10.90;99.90;;;;;;4395867;32;20411;-62
2023/11/20 11:00:34;;;;;;;0.37;0.37;;;10.90;99.90;;;;;;4393944;32;20248;-61
2023/11/20 11:03:01;;;;;;;0.30;0.30;;;10.90;99.90;;;;;;4411188;32;20526;-61
2023/11/20 11:05:29;;;;;;;0.40;0.40;;;10.80;99.90;;;;;;4392955;32;20302;-62
2023/11/20 11:07:57;;;;;;;0.25;0.25;;;10.80;99.90;;;;;;4411320;32;20195;-61
2023/11/20 11:10:24;;;;;;;0.62;0.62;;;10.90;99.90;;;;;;4404164;32;20572;-59
2023/11/20 11:12:50;;;;;;;0.40;0.40;;;10.90;99.90;;;;;;4396216;32;20428;-61
2023/11/20 11:15:16;;;;;;;0.30;0.30;;;10.90;99.90;;;;;;4397534;32;20532;-62
2023/11/20 11:17:48;;;;;;;0.40;0.40;;;10.90;99.90;;;;;;4385194;32;20083;-60
2023/11/20 11:20:16;;;;;;;0.45;0.45;;;11.00;99.90;;;;;;4398029;32;20604;-60
2023/11/20 11:22:50;;;;;;;0.30;0.30;;;11.00;99.90;;;;;;4406304;32;20433;-60
2023/11/20 11:25:18;;;;;;;0.40;0.40;;;11.00;99.90;;;;;;4394966;32;20338;-61
2023/11/20 11:27:54;;;;;;;0.30;0.30;;;11.00;99.90;;;;;;4406292;32;20673;-61
2023/11/20 11:30:21;;;;;;;0.40;0.40;;;11.00;99.90;;;;;;4398168;32;21419;-61
2023/11/20 11:33:15;;;;;;;0.30;0.30;;;11.00;99.90;;;;;;4398628;32;20065;-60
2023/11/20 11:36:13;;;;;;;0.40;0.40;;;11.00;99.90;;;;;;4408748;32;20081;-60
2023/11/20 11:38:50;;;;;;;0.40;0.40;;;11.00;99.90;;;;;;4406316;32;20097;-60
2023/11/20 11:41:45;;;;;;;0.40;0.40;;;11.00;99.90;;;;;;4412338;32;21369;-60
2023/11/20 11:44:18;;;;;;;0.30;0.30;;;11.00;99.90;;;;;;4412474;32;20084;-61
2023/11/20 11:46:44;;;;;;;0.45;0.45;;;11.00;99.90;;;;;;4403314;32;20675;-60
2023/11/20 11:49:20;;;;;;;0.40;0.40;;;11.00;99.90;;;;;;4395144;32;94498;-60
2023/11/20 11:51:49;;;;;;;0.30;0.30;;;11.10;99.90;;;;;;4386718;32;20088;-60
2023/11/20 11:54:15;;;;;;;0.93;0.50;;;11.20;99.90;;;;;;4382690;32;20077;-60
2023/11/20 11:56:56;;;;;;;12.07;0.60;;;11.20;99.90;;;;;;4384183;32;21897;-59
2023/11/20 11:59:33;;;;;;;0.40;0.40;;;11.20;99.90;;;;;;4393809;32;20084;-58
2023/11/20 12:01:59;;;;;;;0.30;0.30;;;11.20;99.90;;;;;;4393334;32;20496;-59
2023/11/20 12:04:54;;;;;;;0.30;0.30;;;11.10;99.90;;;;;;4392934;32;20109;-59
2023/11/20 12:07:39;;;;;;;0.40;0.40;;;11.20;99.90;;;;;;4381850;32;20148;-61
2023/11/20 12:10:11;;;;;;;0.40;0.40;;;11.30;99.90;;;;;;4397859;32;20541;-61
2023/11/20 12:12:51;;;;;;;0.43;0.43;;;11.30;99.90;;;;;;4390047;32;20082;-60
2023/11/20 12:15:37;;;;;;;0.50;0.50;;;11.20;99.90;;;;;;4393924;32;20081;-58
2023/11/20 12:18:13;;;;;;;0.57;0.52;;;11.20;99.90;;;;;;4399059;32;20110;-60
2023/11/20 12:20:42;;;;;;;0.60;0.60;;;11.20;99.90;;;;;;4397536;32;20167;-59
2023/11/20 12:23:17;;;;;;;0.40;0.40;;;11.20;99.90;;;;;;4384091;32;20752;-61
2023/11/20 12:25:42;;;;;;;0.50;0.50;;;11.20;99.90;;;;;;4379176;32;20493;-55
2023/11/20 12:28:08;;;;;;;0.30;0.30;;;11.20;99.90;;;;;;4389560;32;20504;-56
2023/11/20 12:30:34;;;;;;;0.40;0.40;;;11.20;99.90;;;;;;4393763;32;20370;-57
2023/11/20 12:33:01;;;;;;;0.40;0.40;;;11.20;99.90;;;;;;4395524;32;20970;-60
2023/11/20 12:35:26;;;;;;;0.40;0.40;;;11.20;99.90;;;;;;4396567;32;21464;-59
2023/11/20 12:37:52;;;;;;;0.30;0.30;;;11.20;99.90;;;;;;4387412;32;20559;-59
2023/11/20 12:40:18;;;;;;;0.32;0.32;;;11.20;99.90;;;;;;4392254;32;20598;-61
2023/11/20 12:42:44;;;;;;;0.30;0.30;;;11.20;99.90;;;;;;4395212;32;20144;-61
2023/11/20 12:45:10;;;;;;;0.47;0.47;;;11.20;99.90;;;;;;4389526;32;20989;-61
2023/11/20 12:47:37;;;;;;;0.30;0.30;;;11.20;99.90;;;;;;4382535;32;20105;-61
2023/11/20 12:50:03;;;;;;;0.37;0.37;;;11.20;99.90;;;;;;4397369;32;20101;-60
2023/11/20 12:52:30;;;;;;;0.40;0.40;;;11.20;99.90;;;;;;4398097;32;20069;-59